sensor_id;sensor_type;location;lat;lon;timestamp;P1;durP1;ratioP1;P2;durP2;ratioP2
66707;SDS011;53622;0.000;0.000;2023-02-12T00:01:57;7.97;;;7.18;;
66707;SDS011;53622;0.000;0.000;2023-02-12T00:04:26;7.82;;;7.13;;
66707;SDS011;53622;0.000;0.000;2023-02-12T00:06:57;6.93;;;6.40;;
66707;SDS011;53622;0.000;0.000;2023-02-12T00:09:26;7.93;;;7.07;;
66707;SDS011;53622;0.000;0.000;2023-02-12T00:11:56;7.82;;;6.95;;
66707;SDS011;53622;0.000;0.000;2023-02-12T00:14:25;7.88;;;7.18;;
66707;SDS011;53622;0.000;0.000;2023-02-12T00:16:54;7.45;;;6.75;;
66707;SDS011;53622;0.000;0.000;2023-02-12T00:19:23;7.20;;;6.38;;
66707;SDS011;53622;0.000;0.000;2023-02-12T00:21:54;7.50;;;6.78;;
66707;SDS011;53622;0.000;0.000;2023-02-12T00:24:25;7.03;;;6.32;;
66707;SDS011;53622;0.000;0.000;2023-02-12T00:26:54;7.97;;;7.18;;
66707;SDS011;53622;0.000;0.000;2023-02-12T00:29:23;8.02;;;7.22;;
66707;SDS011;53622;0.000;0.000;2023-02-12T00:31:52;8.18;;;6.40;;
66707;SDS011;53622;0.000;0.000;2023-02-12T00:34:24;7.07;;;6.47;;
66707;SDS011;53622;0.000;0.000;2023-02-12T00:36:53;7.57;;;6.88;;
66707;SDS011;53622;0.000;0.000;2023-02-12T00:39:23;7.18;;;6.43;;
66707;SDS011;53622;0.000;0.000;2023-02-12T00:41:53;7.25;;;6.55;;
66707;SDS011;53622;0.000;0.000;2023-02-12T00:44:23;7.47;;;6.80;;
66707;SDS011;53622;0.000;0.000;2023-02-12T00:46:52;7.68;;;6.57;;
66707;SDS011;53622;0.000;0.000;2023-02-12T00:49:21;7.50;;;6.80;;
66707;SDS011;53622;0.000;0.000;2023-02-12T00:51:50;7.18;;;6.47;;
66707;SDS011;53622;0.000;0.000;2023-02-12T00:54:20;6.95;;;6.25;;
66707;SDS011;53622;0.000;0.000;2023-02-12T00:56:50;7.82;;;7.03;;
66707;SDS011;53622;0.000;0.000;2023-02-12T00:59:21;7.30;;;6.60;;
66707;SDS011;53622;0.000;0.000;2023-02-12T01:01:52;8.43;;;6.32;;
66707;SDS011;53622;0.000;0.000;2023-02-12T01:04:23;7.45;;;6.75;;
66707;SDS011;53622;0.000;0.000;2023-02-12T01:06:54;7.28;;;6.57;;
66707;SDS011;53622;0.000;0.000;2023-02-12T01:09:23;7.60;;;6.80;;
66707;SDS011;53622;0.000;0.000;2023-02-12T01:11:54;6.55;;;5.95;;
66707;SDS011;53622;0.000;0.000;2023-02-12T01:14:23;7.40;;;6.70;;
66707;SDS011;53622;0.000;0.000;2023-02-12T01:16:52;7.43;;;6.60;;
66707;SDS011;53622;0.000;0.000;2023-02-12T01:19:22;6.85;;;6.25;;
66707;SDS011;53622;0.000;0.000;2023-02-12T01:21:51;6.70;;;6.10;;
66707;SDS011;53622;0.000;0.000;2023-02-12T01:24:20;6.60;;;5.93;;
66707;SDS011;53622;0.000;0.000;2023-02-12T01:26:49;8.10;;;6.55;;
66707;SDS011;53622;0.000;0.000;2023-02-12T01:29:20;7.05;;;6.32;;
66707;SDS011;53622;0.000;0.000;2023-02-12T01:31:49;7.05;;;6.40;;
66707;SDS011;53622;0.000;0.000;2023-02-12T01:34:19;7.05;;;6.35;;
66707;SDS011;53622;0.000;0.000;2023-02-12T01:36:48;6.80;;;6.20;;
66707;SDS011;53622;0.000;0.000;2023-02-12T01:39:17;6.90;;;6.20;;
66707;SDS011;53622;0.000;0.000;2023-02-12T01:41:47;7.10;;;6.43;;
66707;SDS011;53622;0.000;0.000;2023-02-12T01:44:17;7.25;;;6.65;;
66707;SDS011;53622;0.000;0.000;2023-02-12T01:46:49;6.47;;;5.90;;
66707;SDS011;53622;0.000;0.000;2023-02-12T01:49:25;6.45;;;5.85;;
66707;SDS011;53622;0.000;0.000;2023-02-12T01:52:00;6.97;;;6.22;;
66707;SDS011;53622;0.000;0.000;2023-02-12T01:54:33;7.00;;;6.30;;
66707;SDS011;53622;0.000;0.000;2023-02-12T01:57:05;7.75;;;6.55;;
66707;SDS011;53622;0.000;0.000;2023-02-12T01:59:36;7.10;;;6.40;;
66707;SDS011;53622;0.000;0.000;2023-02-12T02:02:07;6.88;;;6.20;;
66707;SDS011;53622;0.000;0.000;2023-02-12T02:04:37;6.53;;;5.93;;
66707;SDS011;53622;0.000;0.000;2023-02-12T02:07:10;6.90;;;6.30;;
66707;SDS011;53622;0.000;0.000;2023-02-12T02:09:40;6.40;;;5.80;;
66707;SDS011;53622;0.000;0.000;2023-02-12T02:12:09;7.20;;;6.60;;
66707;SDS011;53622;0.000;0.000;2023-02-12T02:14:57;6.68;;;6.00;;
66707;SDS011;53622;0.000;0.000;2023-02-12T02:17:36;6.80;;;6.20;;
66707;SDS011;53622;0.000;0.000;2023-02-12T02:20:27;7.30;;;6.40;;
66707;SDS011;53622;0.000;0.000;2023-02-12T02:23:25;7.30;;;6.60;;
66707;SDS011;53622;0.000;0.000;2023-02-12T02:29:20;6.45;;;5.88;;
66707;SDS011;53622;0.000;0.000;2023-02-12T02:32:11;6.63;;;6.10;;
66707;SDS011;53622;0.000;0.000;2023-02-12T02:34:46;7.05;;;6.35;;
66707;SDS011;53622;0.000;0.000;2023-02-12T02:37:29;6.80;;;6.13;;
66707;SDS011;53622;0.000;0.000;2023-02-12T02:40:03;6.55;;;5.95;;
66707;SDS011;53622;0.000;0.000;2023-02-12T02:42:40;6.55;;;5.95;;
66707;SDS011;53622;0.000;0.000;2023-02-12T02:45:15;6.38;;;5.78;;
66707;SDS011;53622;0.000;0.000;2023-02-12T02:47:52;6.70;;;6.10;;
66707;SDS011;53622;0.000;0.000;2023-02-12T02:50:24;6.90;;;6.20;;
66707;SDS011;53622;0.000;0.000;2023-02-12T02:52:55;7.65;;;6.78;;
66707;SDS011;53622;0.000;0.000;2023-02-12T02:55:29;6.60;;;6.00;;
66707;SDS011;53622;0.000;0.000;2023-02-12T02:58:05;6.72;;;6.13;;
66707;SDS011;53622;0.000;0.000;2023-02-12T03:00:40;6.50;;;5.97;;
66707;SDS011;53622;0.000;0.000;2023-02-12T03:03:17;6.88;;;6.28;;
66707;SDS011;53622;0.000;0.000;2023-02-12T03:05:51;6.32;;;5.72;;
66707;SDS011;53622;0.000;0.000;2023-02-12T03:08:27;6.57;;;5.95;;
66707;SDS011;53622;0.000;0.000;2023-02-12T03:11:02;7.28;;;6.57;;
66707;SDS011;53622;0.000;0.000;2023-02-12T03:13:36;7.15;;;6.45;;
66707;SDS011;53622;0.000;0.000;2023-02-12T03:16:10;6.20;;;5.70;;
66707;SDS011;53622;0.000;0.000;2023-02-12T03:18:48;7.40;;;6.70;;
66707;SDS011;53622;0.000;0.000;2023-02-12T03:21:23;6.30;;;5.80;;
66707;SDS011;53622;0.000;0.000;2023-02-12T03:23:56;6.32;;;5.72;;
66707;SDS011;53622;0.000;0.000;2023-02-12T03:26:33;6.47;;;5.88;;
66707;SDS011;53622;0.000;0.000;2023-02-12T03:29:10;6.90;;;6.30;;
66707;SDS011;53622;0.000;0.000;2023-02-12T03:31:44;6.05;;;5.53;;
66707;SDS011;53622;0.000;0.000;2023-02-12T03:34:25;6.60;;;6.00;;
66707;SDS011;53622;0.000;0.000;2023-02-12T03:37:02;6.78;;;6.15;;
66707;SDS011;53622;0.000;0.000;2023-02-12T03:39:38;6.65;;;6.05;;
66707;SDS011;53622;0.000;0.000;2023-02-12T03:42:13;6.32;;;5.72;;
66707;SDS011;53622;0.000;0.000;2023-02-12T03:44:49;6.32;;;5.72;;
66707;SDS011;53622;0.000;0.000;2023-02-12T03:47:24;6.05;;;5.55;;
66707;SDS011;53622;0.000;0.000;2023-02-12T03:50:05;6.18;;;5.57;;
66707;SDS011;53622;0.000;0.000;2023-02-12T03:52:38;7.15;;;6.00;;
66707;SDS011;53622;0.000;0.000;2023-02-12T03:55:08;5.90;;;5.40;;
66707;SDS011;53622;0.000;0.000;2023-02-12T03:57:40;6.38;;;5.78;;
66707;SDS011;53622;0.000;0.000;2023-02-12T04:00:16;5.85;;;5.35;;
66707;SDS011;53622;0.000;0.000;2023-02-12T04:02:47;6.60;;;5.90;;
66707;SDS011;53622;0.000;0.000;2023-02-12T04:05:19;6.05;;;5.55;;
66707;SDS011;53622;0.000;0.000;2023-02-12T04:07:49;6.00;;;5.40;;
66707;SDS011;53622;0.000;0.000;2023-02-12T04:10:21;6.65;;;5.65;;
66707;SDS011;53622;0.000;0.000;2023-02-12T04:12:59;6.07;;;5.47;;
66707;SDS011;53622;0.000;0.000;2023-02-12T04:15:42;6.45;;;5.57;;
66707;SDS011;53622;0.000;0.000;2023-02-12T04:18:23;6.38;;;5.78;;
66707;SDS011;53622;0.000;0.000;2023-02-12T04:20:59;6.60;;;6.00;;
66707;SDS011;53622;0.000;0.000;2023-02-12T04:23:39;7.50;;;5.47;;
66707;SDS011;53622;0.000;0.000;2023-02-12T04:26:22;6.35;;;5.75;;
66707;SDS011;53622;0.000;0.000;2023-02-12T04:28:58;6.60;;;6.00;;
66707;SDS011;53622;0.000;0.000;2023-02-12T04:31:37;6.30;;;5.70;;
66707;SDS011;53622;0.000;0.000;2023-02-12T04:34:13;6.28;;;5.68;;
66707;SDS011;53622;0.000;0.000;2023-02-12T04:36:48;6.13;;;5.53;;
66707;SDS011;53622;0.000;0.000;2023-02-12T04:39:25;5.85;;;5.25;;
66707;SDS011;53622;0.000;0.000;2023-02-12T04:41:57;6.57;;;5.97;;
66707;SDS011;53622;0.000;0.000;2023-02-12T04:44:28;6.30;;;5.70;;
66707;SDS011;53622;0.000;0.000;2023-02-12T04:46:59;6.28;;;5.70;;
66707;SDS011;53622;0.000;0.000;2023-02-12T04:49:29;6.25;;;5.65;;
66707;SDS011;53622;0.000;0.000;2023-02-12T04:51:59;6.00;;;5.40;;
66707;SDS011;53622;0.000;0.000;2023-02-12T04:54:29;6.20;;;5.60;;
66707;SDS011;53622;0.000;0.000;2023-02-12T04:56:58;6.18;;;5.57;;
66707;SDS011;53622;0.000;0.000;2023-02-12T04:59:27;6.13;;;5.60;;
66707;SDS011;53622;0.000;0.000;2023-02-12T05:01:56;6.38;;;5.78;;
66707;SDS011;53622;0.000;0.000;2023-02-12T05:04:26;5.90;;;5.40;;
66707;SDS011;53622;0.000;0.000;2023-02-12T05:06:55;6.53;;;5.93;;
66707;SDS011;53622;0.000;0.000;2023-02-12T05:09:26;5.97;;;5.47;;
66707;SDS011;53622;0.000;0.000;2023-02-12T05:11:55;5.90;;;5.30;;
66707;SDS011;53622;0.000;0.000;2023-02-12T05:14:24;6.00;;;5.50;;
66707;SDS011;53622;0.000;0.000;2023-02-12T05:16:54;5.95;;;5.45;;
66707;SDS011;53622;0.000;0.000;2023-02-12T05:19:23;5.80;;;5.22;;
66707;SDS011;53622;0.000;0.000;2023-02-12T05:21:52;5.85;;;5.35;;
66707;SDS011;53622;0.000;0.000;2023-02-12T05:24:22;5.80;;;5.30;;
66707;SDS011;53622;0.000;0.000;2023-02-12T05:26:53;6.57;;;5.97;;
66707;SDS011;53622;0.000;0.000;2023-02-12T05:29:22;6.10;;;5.60;;
66707;SDS011;53622;0.000;0.000;2023-02-12T05:31:51;5.85;;;5.35;;
66707;SDS011;53622;0.000;0.000;2023-02-12T05:34:21;6.30;;;5.70;;
66707;SDS011;53622;0.000;0.000;2023-02-12T05:36:50;5.93;;;5.33;;
66707;SDS011;53622;0.000;0.000;2023-02-12T05:39:19;7.05;;;6.03;;
66707;SDS011;53622;0.000;0.000;2023-02-12T05:41:49;6.50;;;5.90;;
66707;SDS011;53622;0.000;0.000;2023-02-12T05:44:19;7.82;;;5.90;;
66707;SDS011;53622;0.000;0.000;2023-02-12T05:46:49;6.05;;;5.45;;
66707;SDS011;53622;0.000;0.000;2023-02-12T05:49:18;6.23;;;5.43;;
66707;SDS011;53622;0.000;0.000;2023-02-12T05:51:47;5.78;;;5.28;;
66707;SDS011;53622;0.000;0.000;2023-02-12T05:54:17;5.97;;;5.45;;
66707;SDS011;53622;0.000;0.000;2023-02-12T05:56:46;6.83;;;6.13;;
66707;SDS011;53622;0.000;0.000;2023-02-12T05:59:17;5.63;;;5.13;;
66707;SDS011;53622;0.000;0.000;2023-02-12T06:01:49;6.50;;;5.90;;
66707;SDS011;53622;0.000;0.000;2023-02-12T06:04:20;6.35;;;5.75;;
66707;SDS011;53622;0.000;0.000;2023-02-12T06:06:53;6.28;;;5.68;;
66707;SDS011;53622;0.000;0.000;2023-02-12T06:09:23;6.30;;;5.70;;
66707;SDS011;53622;0.000;0.000;2023-02-12T06:11:52;6.05;;;5.55;;
66707;SDS011;53622;0.000;0.000;2023-02-12T06:14:21;6.70;;;6.00;;
66707;SDS011;53622;0.000;0.000;2023-02-12T06:16:52;6.20;;;5.70;;
66707;SDS011;53622;0.000;0.000;2023-02-12T06:19:21;6.47;;;5.88;;
66707;SDS011;53622;0.000;0.000;2023-02-12T06:21:51;5.80;;;5.30;;
66707;SDS011;53622;0.000;0.000;2023-02-12T06:24:20;6.68;;;5.70;;
66707;SDS011;53622;0.000;0.000;2023-02-12T06:26:50;6.47;;;5.88;;
66707;SDS011;53622;0.000;0.000;2023-02-12T06:29:20;5.93;;;5.33;;
66707;SDS011;53622;0.000;0.000;2023-02-12T06:31:49;6.40;;;5.80;;
66707;SDS011;53622;0.000;0.000;2023-02-12T06:34:20;6.40;;;5.80;;
66707;SDS011;53622;0.000;0.000;2023-02-12T06:36:49;6.30;;;5.70;;
66707;SDS011;53622;0.000;0.000;2023-02-12T06:39:18;7.90;;;6.13;;
66707;SDS011;53622;0.000;0.000;2023-02-12T06:41:48;7.13;;;5.75;;
66707;SDS011;53622;0.000;0.000;2023-02-12T06:44:17;8.15;;;6.00;;
66707;SDS011;53622;0.000;0.000;2023-02-12T06:46:46;6.10;;;5.50;;
66707;SDS011;53622;0.000;0.000;2023-02-12T06:49:16;6.30;;;5.73;;
66707;SDS011;53622;0.000;0.000;2023-02-12T06:51:46;7.70;;;5.57;;
66707;SDS011;53622;0.000;0.000;2023-02-12T06:54:16;6.60;;;5.78;;
66707;SDS011;53622;0.000;0.000;2023-02-12T06:56:46;6.15;;;5.57;;
66707;SDS011;53622;0.000;0.000;2023-02-12T06:59:15;6.35;;;5.75;;
66707;SDS011;53622;0.000;0.000;2023-02-12T07:01:45;7.20;;;5.82;;
66707;SDS011;53622;0.000;0.000;2023-02-12T07:04:14;6.20;;;5.60;;
66707;SDS011;53622;0.000;0.000;2023-02-12T07:06:43;6.97;;;5.50;;
66707;SDS011;53622;0.000;0.000;2023-02-12T07:09:14;6.43;;;5.73;;
66707;SDS011;53622;0.000;0.000;2023-02-12T07:11:43;7.00;;;5.82;;
66707;SDS011;53622;0.000;0.000;2023-02-12T07:14:13;6.10;;;5.50;;
66707;SDS011;53622;0.000;0.000;2023-02-12T07:16:43;7.57;;;5.88;;
66707;SDS011;53622;0.000;0.000;2023-02-12T07:19:14;9.55;;;6.78;;
66707;SDS011;53622;0.000;0.000;2023-02-12T07:21:44;6.95;;;5.25;;
66707;SDS011;53622;0.000;0.000;2023-02-12T07:24:15;8.17;;;6.33;;
66707;SDS011;53622;0.000;0.000;2023-02-12T07:26:44;6.30;;;5.70;;
66707;SDS011;53622;0.000;0.000;2023-02-12T07:29:13;8.23;;;5.20;;
66707;SDS011;53622;0.000;0.000;2023-02-12T07:31:43;6.72;;;5.40;;
66707;SDS011;53622;0.000;0.000;2023-02-12T07:34:12;7.15;;;5.30;;
66707;SDS011;53622;0.000;0.000;2023-02-12T07:36:41;6.30;;;4.97;;
66707;SDS011;53622;0.000;0.000;2023-02-12T07:39:11;5.82;;;5.10;;
66707;SDS011;53622;0.000;0.000;2023-02-12T07:41:42;5.65;;;4.78;;
66707;SDS011;53622;0.000;0.000;2023-02-12T07:44:11;4.90;;;4.40;;
66707;SDS011;53622;0.000;0.000;2023-02-12T07:46:41;7.38;;;4.78;;
66707;SDS011;53622;0.000;0.000;2023-02-12T07:49:15;6.07;;;4.63;;
66707;SDS011;53622;0.000;0.000;2023-02-12T07:51:46;6.82;;;4.50;;
66707;SDS011;53622;0.000;0.000;2023-02-12T07:54:16;4.95;;;4.45;;
66707;SDS011;53622;0.000;0.000;2023-02-12T07:56:47;6.03;;;4.97;;
66707;SDS011;53622;0.000;0.000;2023-02-12T07:59:17;6.15;;;4.75;;
66707;SDS011;53622;0.000;0.000;2023-02-12T08:01:47;5.63;;;4.53;;
66707;SDS011;53622;0.000;0.000;2023-02-12T08:04:19;5.82;;;4.63;;
66707;SDS011;53622;0.000;0.000;2023-02-12T08:06:50;7.25;;;4.65;;
66707;SDS011;53622;0.000;0.000;2023-02-12T08:09:23;10.05;;;4.65;;
66707;SDS011;53622;0.000;0.000;2023-02-12T08:11:55;9.02;;;4.75;;
66707;SDS011;53622;0.000;0.000;2023-02-12T08:14:26;5.45;;;4.65;;
66707;SDS011;53622;0.000;0.000;2023-02-12T08:16:55;7.18;;;4.50;;
66707;SDS011;53622;0.000;0.000;2023-02-12T08:19:25;6.88;;;4.70;;
66707;SDS011;53622;0.000;0.000;2023-02-12T08:21:55;7.20;;;4.75;;
66707;SDS011;53622;0.000;0.000;2023-02-12T08:24:25;6.97;;;4.68;;
66707;SDS011;53622;0.000;0.000;2023-02-12T08:26:56;4.75;;;4.35;;
66707;SDS011;53622;0.000;0.000;2023-02-12T08:29:26;4.60;;;4.20;;
66707;SDS011;53622;0.000;0.000;2023-02-12T08:31:58;6.63;;;4.40;;
66707;SDS011;53622;0.000;0.000;2023-02-12T08:34:29;5.65;;;4.72;;
66707;SDS011;53622;0.000;0.000;2023-02-12T08:37:01;5.07;;;4.57;;
66707;SDS011;53622;0.000;0.000;2023-02-12T08:39:33;4.43;;;3.90;;
66707;SDS011;53622;0.000;0.000;2023-02-12T08:42:04;5.47;;;4.93;;
66707;SDS011;53622;0.000;0.000;2023-02-12T08:44:34;5.85;;;5.10;;
66707;SDS011;53622;0.000;0.000;2023-02-12T08:47:04;8.18;;;5.13;;
66707;SDS011;53622;0.000;0.000;2023-02-12T08:49:33;27.38;;;8.35;;
66707;SDS011;53622;0.000;0.000;2023-02-12T08:52:03;16.67;;;7.22;;
66707;SDS011;53622;0.000;0.000;2023-02-12T08:54:32;18.40;;;6.50;;
66707;SDS011;53622;0.000;0.000;2023-02-12T08:57:02;18.95;;;7.20;;
66707;SDS011;53622;0.000;0.000;2023-02-12T08:59:33;19.13;;;7.13;;
66707;SDS011;53622;0.000;0.000;2023-02-12T09:02:03;16.50;;;6.35;;
66707;SDS011;53622;0.000;0.000;2023-02-12T09:04:35;11.65;;;6.03;;
66707;SDS011;53622;0.000;0.000;2023-02-12T09:07:04;16.40;;;6.05;;
66707;SDS011;53622;0.000;0.000;2023-02-12T09:09:37;14.43;;;5.35;;
66707;SDS011;53622;0.000;0.000;2023-02-12T09:12:08;9.48;;;5.60;;
66707;SDS011;53622;0.000;0.000;2023-02-12T09:14:37;10.90;;;5.30;;
66707;SDS011;53622;0.000;0.000;2023-02-12T09:17:06;11.25;;;5.35;;
66707;SDS011;53622;0.000;0.000;2023-02-12T09:19:36;14.15;;;5.40;;
66707;SDS011;53622;0.000;0.000;2023-02-12T09:22:05;11.13;;;5.03;;
66707;SDS011;53622;0.000;0.000;2023-02-12T09:24:35;13.48;;;5.65;;
66707;SDS011;53622;0.000;0.000;2023-02-12T09:27:05;9.50;;;5.07;;
66707;SDS011;53622;0.000;0.000;2023-02-12T09:29:35;15.20;;;5.47;;
66707;SDS011;53622;0.000;0.000;2023-02-12T09:32:05;11.95;;;4.75;;
66707;SDS011;53622;0.000;0.000;2023-02-12T09:34:35;7.60;;;4.65;;
66707;SDS011;53622;0.000;0.000;2023-02-12T09:37:04;8.82;;;4.38;;
66707;SDS011;53622;0.000;0.000;2023-02-12T09:39:34;10.13;;;5.07;;
66707;SDS011;53622;0.000;0.000;2023-02-12T09:45:02;9.38;;;4.90;;
66707;SDS011;53622;0.000;0.000;2023-02-12T09:47:39;13.45;;;4.80;;
66707;SDS011;53622;0.000;0.000;2023-02-12T09:53:13;12.68;;;5.38;;
66707;SDS011;53622;0.000;0.000;2023-02-12T09:55:45;8.93;;;5.28;;
66707;SDS011;53622;0.000;0.000;2023-02-12T09:58:15;9.02;;;4.65;;
66707;SDS011;53622;0.000;0.000;2023-02-12T10:00:50;8.23;;;4.72;;
66707;SDS011;53622;0.000;0.000;2023-02-12T10:03:20;7.50;;;4.72;;
66707;SDS011;53622;0.000;0.000;2023-02-12T10:05:50;11.00;;;4.60;;
66707;SDS011;53622;0.000;0.000;2023-02-12T10:08:28;7.65;;;4.78;;
66707;SDS011;53622;0.000;0.000;2023-02-12T10:11:14;12.85;;;5.20;;
66707;SDS011;53622;0.000;0.000;2023-02-12T10:13:51;6.95;;;4.85;;
66707;SDS011;53622;0.000;0.000;2023-02-12T10:16:34;10.70;;;5.13;;
66707;SDS011;53622;0.000;0.000;2023-02-12T10:19:14;10.15;;;4.68;;
66707;SDS011;53622;0.000;0.000;2023-02-12T10:21:57;9.93;;;4.88;;
66707;SDS011;53622;0.000;0.000;2023-02-12T10:24:38;7.25;;;4.70;;
66707;SDS011;53622;0.000;0.000;2023-02-12T10:27:17;8.15;;;5.20;;
66707;SDS011;53622;0.000;0.000;2023-02-12T10:29:53;6.97;;;4.82;;
66707;SDS011;53622;0.000;0.000;2023-02-12T10:32:27;9.65;;;4.72;;
66707;SDS011;53622;0.000;0.000;2023-02-12T10:35:00;8.05;;;5.05;;
66707;SDS011;53622;0.000;0.000;2023-02-12T10:37:41;7.85;;;5.10;;
66707;SDS011;53622;0.000;0.000;2023-02-12T10:40:16;5.65;;;4.75;;
66707;SDS011;53622;0.000;0.000;2023-02-12T10:42:48;7.95;;;4.90;;
66707;SDS011;53622;0.000;0.000;2023-02-12T10:45:20;12.07;;;5.82;;
66707;SDS011;53622;0.000;0.000;2023-02-12T10:48:00;10.85;;;6.53;;
66707;SDS011;53622;0.000;0.000;2023-02-12T10:50:37;10.20;;;5.90;;
66707;SDS011;53622;0.000;0.000;2023-02-12T10:53:24;12.55;;;5.68;;
66707;SDS011;53622;0.000;0.000;2023-02-12T10:56:10;11.30;;;6.28;;
66707;SDS011;53622;0.000;0.000;2023-02-12T10:58:54;16.33;;;6.35;;
66707;SDS011;53622;0.000;0.000;2023-02-12T11:01:27;10.00;;;6.32;;
66707;SDS011;53622;0.000;0.000;2023-02-12T11:06:58;11.75;;;6.40;;
66707;SDS011;53622;0.000;0.000;2023-02-12T11:09:30;9.45;;;6.00;;
66707;SDS011;53622;0.000;0.000;2023-02-12T11:12:12;6.78;;;5.50;;
66707;SDS011;53622;0.000;0.000;2023-02-12T11:14:54;7.40;;;5.68;;
66707;SDS011;53622;0.000;0.000;2023-02-12T11:17:26;8.38;;;6.32;;
66707;SDS011;53622;0.000;0.000;2023-02-12T11:20:06;9.40;;;5.88;;
66707;SDS011;53622;0.000;0.000;2023-02-12T11:22:50;8.10;;;5.75;;
66707;SDS011;53622;0.000;0.000;2023-02-12T11:25:22;7.93;;;5.60;;
66707;SDS011;53622;0.000;0.000;2023-02-12T11:28:01;7.72;;;5.68;;
66707;SDS011;53622;0.000;0.000;2023-02-12T11:30:49;8.13;;;5.72;;
66707;SDS011;53622;0.000;0.000;2023-02-12T11:33:22;9.95;;;5.70;;
66707;SDS011;53622;0.000;0.000;2023-02-12T11:35:53;9.05;;;5.50;;
66707;SDS011;53622;0.000;0.000;2023-02-12T11:38:31;9.82;;;5.68;;
66707;SDS011;53622;0.000;0.000;2023-02-12T11:41:05;9.00;;;5.40;;
66707;SDS011;53622;0.000;0.000;2023-02-12T11:43:47;6.63;;;6.03;;
66707;SDS011;53622;0.000;0.000;2023-02-12T11:46:19;10.90;;;6.70;;
66707;SDS011;53622;0.000;0.000;2023-02-12T11:48:51;11.55;;;7.90;;
66707;SDS011;53622;0.000;0.000;2023-02-12T11:51:24;10.77;;;8.35;;
66707;SDS011;53622;0.000;0.000;2023-02-12T11:53:58;12.60;;;8.55;;
66707;SDS011;53622;0.000;0.000;2023-02-12T11:56:40;12.77;;;10.07;;
66707;SDS011;53622;0.000;0.000;2023-02-12T11:59:22;12.40;;;10.20;;
66707;SDS011;53622;0.000;0.000;2023-02-12T12:01:58;10.32;;;9.23;;
66707;SDS011;53622;0.000;0.000;2023-02-12T12:04:31;15.90;;;12.75;;
66707;SDS011;53622;0.000;0.000;2023-02-12T12:07:04;15.13;;;12.25;;
66707;SDS011;53622;0.000;0.000;2023-02-12T12:09:44;13.40;;;12.10;;
66707;SDS011;53622;0.000;0.000;2023-02-12T12:12:19;12.93;;;11.25;;
66707;SDS011;53622;0.000;0.000;2023-02-12T12:14:51;13.73;;;12.23;;
66707;SDS011;53622;0.000;0.000;2023-02-12T12:17:43;15.15;;;12.70;;
66707;SDS011;53622;0.000;0.000;2023-02-12T12:20:34;15.27;;;12.07;;
66707;SDS011;53622;0.000;0.000;2023-02-12T12:23:08;12.82;;;11.23;;
66707;SDS011;53622;0.000;0.000;2023-02-12T12:25:46;12.98;;;10.80;;
66707;SDS011;53622;0.000;0.000;2023-02-12T12:28:24;13.73;;;11.15;;
66707;SDS011;53622;0.000;0.000;2023-02-12T12:31:05;13.07;;;11.30;;
66707;SDS011;53622;0.000;0.000;2023-02-12T12:33:39;14.10;;;12.48;;
66707;SDS011;53622;0.000;0.000;2023-02-12T12:36:25;14.10;;;12.07;;
66707;SDS011;53622;0.000;0.000;2023-02-12T12:39:21;13.50;;;12.15;;
66707;SDS011;53622;0.000;0.000;2023-02-12T12:42:04;13.90;;;12.40;;
66707;SDS011;53622;0.000;0.000;2023-02-12T12:45:02;16.95;;;13.05;;
66707;SDS011;53622;0.000;0.000;2023-02-12T12:47:44;14.50;;;12.95;;
66707;SDS011;53622;0.000;0.000;2023-02-12T12:50:34;15.27;;;13.73;;
66707;SDS011;53622;0.000;0.000;2023-02-12T12:53:19;14.93;;;13.55;;
66707;SDS011;53622;0.000;0.000;2023-02-12T12:59:03;17.73;;;14.45;;
66707;SDS011;53622;0.000;0.000;2023-02-12T13:01:54;19.73;;;14.18;;
66707;SDS011;53622;0.000;0.000;2023-02-12T13:04:46;16.52;;;14.63;;
66707;SDS011;53622;0.000;0.000;2023-02-12T13:07:34;17.05;;;15.25;;
66707;SDS011;53622;0.000;0.000;2023-02-12T13:10:18;17.90;;;14.63;;
66707;SDS011;53622;0.000;0.000;2023-02-12T13:13:00;16.67;;;15.00;;
66707;SDS011;53622;0.000;0.000;2023-02-12T13:15:49;17.65;;;15.77;;
66707;SDS011;53622;0.000;0.000;2023-02-12T13:18:32;17.83;;;16.15;;
66707;SDS011;53622;0.000;0.000;2023-02-12T13:21:10;17.42;;;15.63;;
66707;SDS011;53622;0.000;0.000;2023-02-12T13:23:48;17.83;;;15.90;;
66707;SDS011;53622;0.000;0.000;2023-02-12T13:26:23;17.67;;;15.73;;
66707;SDS011;53622;0.000;0.000;2023-02-12T13:28:59;17.60;;;15.90;;
66707;SDS011;53622;0.000;0.000;2023-02-12T13:31:35;19.02;;;17.13;;
66707;SDS011;53622;0.000;0.000;2023-02-12T13:34:13;18.80;;;17.05;;
66707;SDS011;53622;0.000;0.000;2023-02-12T13:36:46;19.52;;;17.73;;
66707;SDS011;53622;0.000;0.000;2023-02-12T13:39:21;18.80;;;17.10;;
66707;SDS011;53622;0.000;0.000;2023-02-12T13:41:57;19.02;;;17.20;;
66707;SDS011;53622;0.000;0.000;2023-02-12T13:44:45;18.77;;;16.92;;
66707;SDS011;53622;0.000;0.000;2023-02-12T13:47:28;19.67;;;17.77;;
66707;SDS011;53622;0.000;0.000;2023-02-12T13:50:02;19.83;;;17.90;;
66707;SDS011;53622;0.000;0.000;2023-02-12T13:52:39;19.83;;;17.75;;
66707;SDS011;53622;0.000;0.000;2023-02-12T13:55:20;21.08;;;19.00;;
66707;SDS011;53622;0.000;0.000;2023-02-12T14:01:01;31.50;;;18.75;;
66707;SDS011;53622;0.000;0.000;2023-02-12T14:03:33;21.60;;;18.73;;
66707;SDS011;53622;0.000;0.000;2023-02-12T14:06:10;21.65;;;19.17;;
66707;SDS011;53622;0.000;0.000;2023-02-12T14:08:42;22.90;;;20.55;;
66707;SDS011;53622;0.000;0.000;2023-02-12T14:11:15;24.73;;;21.02;;
66707;SDS011;53622;0.000;0.000;2023-02-12T14:13:49;23.48;;;21.02;;
66707;SDS011;53622;0.000;0.000;2023-02-12T14:16:37;23.98;;;21.58;;
66707;SDS011;53622;0.000;0.000;2023-02-12T14:25:36;26.80;;;24.13;;
66707;SDS011;53622;0.000;0.000;2023-02-12T14:31:21;27.05;;;24.55;;
66707;SDS011;53622;0.000;0.000;2023-02-12T14:37:35;27.83;;;25.35;;
66707;SDS011;53622;0.000;0.000;2023-02-12T14:49:18;31.90;;;21.95;;
66707;SDS011;53622;0.000;0.000;2023-02-12T14:51:53;28.33;;;25.83;;
66707;SDS011;53622;0.000;0.000;2023-02-12T14:54:28;23.45;;;21.15;;
66707;SDS011;53622;0.000;0.000;2023-02-12T14:57:00;22.35;;;20.17;;
66707;SDS011;53622;0.000;0.000;2023-02-12T14:59:36;23.45;;;21.13;;
66707;SDS011;53622;0.000;0.000;2023-02-12T15:02:11;23.70;;;21.48;;
66707;SDS011;53622;0.000;0.000;2023-02-12T15:04:46;24.15;;;21.73;;
66707;SDS011;53622;0.000;0.000;2023-02-12T15:07:21;24.35;;;21.80;;
66707;SDS011;53622;0.000;0.000;2023-02-12T15:09:57;23.20;;;21.05;;
66707;SDS011;53622;0.000;0.000;2023-02-12T15:12:37;22.13;;;20.02;;
66707;SDS011;53622;0.000;0.000;2023-02-12T15:15:12;21.55;;;19.52;;
66707;SDS011;53622;0.000;0.000;2023-02-12T15:17:52;22.10;;;19.90;;
66707;SDS011;53622;0.000;0.000;2023-02-12T15:20:27;22.42;;;20.13;;
66707;SDS011;53622;0.000;0.000;2023-02-12T15:23:07;22.42;;;20.30;;
66707;SDS011;53622;0.000;0.000;2023-02-12T15:26:00;22.38;;;20.20;;
66707;SDS011;53622;0.000;0.000;2023-02-12T15:28:32;23.08;;;20.88;;
66707;SDS011;53622;0.000;0.000;2023-02-12T15:31:04;22.45;;;20.45;;
66707;SDS011;53622;0.000;0.000;2023-02-12T15:33:38;22.73;;;20.63;;
66707;SDS011;53622;0.000;0.000;2023-02-12T15:36:15;24.50;;;22.35;;
66707;SDS011;53622;0.000;0.000;2023-02-12T15:38:47;25.52;;;23.08;;
66707;SDS011;53622;0.000;0.000;2023-02-12T15:41:24;26.55;;;24.13;;
66707;SDS011;53622;0.000;0.000;2023-02-12T15:43:57;25.13;;;22.95;;
66707;SDS011;53622;0.000;0.000;2023-02-12T15:46:28;24.80;;;22.42;;
66707;SDS011;53622;0.000;0.000;2023-02-12T15:48:57;27.45;;;24.75;;
66707;SDS011;53622;0.000;0.000;2023-02-12T15:51:27;30.63;;;27.70;;
66707;SDS011;53622;0.000;0.000;2023-02-12T15:54:02;26.52;;;23.75;;
66707;SDS011;53622;0.000;0.000;2023-02-12T15:56:36;26.25;;;23.60;;
66707;SDS011;53622;0.000;0.000;2023-02-12T15:59:14;26.17;;;22.40;;
66707;SDS011;53622;0.000;0.000;2023-02-12T16:01:54;26.13;;;21.80;;
66707;SDS011;53622;0.000;0.000;2023-02-12T16:04:26;21.48;;;19.45;;
66707;SDS011;53622;0.000;0.000;2023-02-12T16:06:59;21.70;;;19.63;;
66707;SDS011;53622;0.000;0.000;2023-02-12T16:09:29;21.50;;;19.08;;
66707;SDS011;53622;0.000;0.000;2023-02-12T16:12:03;20.70;;;18.58;;
66707;SDS011;53622;0.000;0.000;2023-02-12T16:14:37;21.00;;;18.73;;